createdAt,value
2018-12-16T00:01:10.147Z,0.90
2018-12-16T00:03:38.501Z,0.93
2018-12-16T00:06:07.169Z,1.15
2018-12-16T00:08:35.486Z,0.96
2018-12-16T00:11:03.806Z,0.87
2018-12-16T00:13:32.444Z,0.74
2018-12-16T00:16:00.895Z,0.61
2018-12-16T00:18:29.184Z,0.72
2018-12-16T00:20:57.555Z,0.75
2018-12-16T00:23:25.864Z,0.77
2018-12-16T00:25:54.177Z,0.38
2018-12-16T00:28:22.593Z,0.62
2018-12-16T00:30:50.944Z,0.69
2018-12-16T00:33:19.280Z,0.57
2018-12-16T00:35:47.610Z,0.62
2018-12-16T00:38:15.995Z,0.71
2018-12-16T00:40:44.541Z,0.77
2018-12-16T00:43:12.970Z,0.85
2018-12-16T00:45:41.257Z,0.77
2018-12-16T00:48:09.662Z,0.96
2018-12-16T00:50:38.525Z,0.69
2018-12-16T00:53:07.136Z,0.56
2018-12-16T00:55:35.519Z,0.74
2018-12-16T00:58:03.863Z,1.00
2018-12-16T01:00:32.215Z,0.98
2018-12-16T01:03:01.443Z,0.89
2018-12-16T01:05:29.950Z,0.93
2018-12-16T01:07:58.428Z,0.56
2018-12-16T01:10:27.702Z,0.80
2018-12-16T01:12:57.414Z,0.89
2018-12-16T01:15:28.284Z,0.96
2018-12-16T01:17:56.913Z,0.82
2018-12-16T01:20:25.369Z,0.92
2018-12-16T01:22:56.909Z,0.96
2018-12-16T01:25:25.305Z,0.81
2018-12-16T01:27:53.862Z,1.02
2018-12-16T01:30:22.191Z,0.90
2018-12-16T01:32:50.603Z,0.69
2018-12-16T01:35:19.069Z,0.80
2018-12-16T01:37:47.469Z,0.80
2018-12-16T01:40:16.632Z,0.87
2018-12-16T01:42:44.990Z,1.07
2018-12-16T01:45:13.492Z,0.87
2018-12-16T01:47:41.815Z,0.89
2018-12-16T01:50:10.304Z,0.89
2018-12-16T01:52:38.790Z,1.06
2018-12-16T01:55:08.629Z,1.07
2018-12-16T01:57:37.073Z,1.07
2018-12-16T02:00:09.604Z,0.95
2018-12-16T02:02:37.961Z,1.10
2018-12-16T02:05:06.813Z,0.90
2018-12-16T02:07:35.134Z,0.94
2018-12-16T02:10:04.385Z,0.96
2018-12-16T02:12:32.685Z,0.74
2018-12-16T02:15:00.980Z,0.90
2018-12-16T02:17:29.550Z,0.97
2018-12-16T02:19:57.837Z,0.86
2018-12-16T02:22:26.167Z,0.70
2018-12-16T02:24:54.597Z,0.82
2018-12-16T02:27:22.928Z,0.72
2018-12-16T02:29:52.082Z,0.66
2018-12-16T02:32:20.436Z,0.81
2018-12-16T02:34:48.837Z,0.83
2018-12-16T02:37:17.350Z,0.81
2018-12-16T02:39:45.820Z,0.58
2018-12-16T02:42:14.293Z,0.59
2018-12-16T02:44:42.622Z,0.41
2018-12-16T02:47:10.966Z,0.52
2018-12-16T02:49:39.347Z,0.50
2018-12-16T02:52:07.730Z,0.64
2018-12-16T02:54:36.049Z,0.75
2018-12-16T02:57:04.422Z,0.83
2018-12-16T02:59:32.796Z,1.04
2018-12-16T03:02:01.313Z,1.15
2018-12-16T03:04:29.720Z,1.34
2018-12-16T03:06:58.035Z,1.07
2018-12-16T03:09:26.571Z,1.02
2018-12-16T03:11:55.106Z,1.15
2018-12-16T03:14:23.508Z,1.20
2018-12-16T03:16:52.000Z,1.30
2018-12-16T03:19:20.289Z,1.39
2018-12-16T03:21:48.641Z,1.18
2018-12-16T03:24:17.117Z,1.24
2018-12-16T03:26:45.458Z,1.26
2018-12-16T03:29:13.770Z,1.40
2018-12-16T03:31:42.092Z,1.09
2018-12-16T03:34:10.511Z,1.42
2018-12-16T03:36:38.816Z,1.77
2018-12-16T03:39:07.743Z,1.72
2018-12-16T03:41:36.535Z,1.79
2018-12-16T03:44:05.103Z,1.44
2018-12-16T03:46:33.534Z,1.30
2018-12-16T03:49:01.887Z,1.35
2018-12-16T03:51:30.161Z,1.40
2018-12-16T03:53:58.487Z,1.29
2018-12-16T03:56:26.926Z,1.33
2018-12-16T03:59:21.918Z,1.29
2018-12-16T04:02:04.688Z,1.40
2018-12-16T04:04:33.219Z,1.34
2018-12-16T04:07:01.585Z,1.46
2018-12-16T04:09:30.018Z,1.56
2018-12-16T04:11:58.371Z,1.25
2018-12-16T04:14:26.675Z,1.19
2018-12-16T04:16:55.005Z,1.43
2018-12-16T04:19:23.317Z,1.49
2018-12-16T04:21:51.675Z,1.51
2018-12-16T04:24:20.006Z,1.66
2018-12-16T04:26:48.753Z,1.53
2018-12-16T04:29:17.043Z,1.56
2018-12-16T04:31:45.423Z,1.43
2018-12-16T04:34:13.789Z,1.36
2018-12-16T04:36:42.139Z,1.51
2018-12-16T04:39:10.498Z,1.51
2018-12-16T04:41:38.944Z,1.57
2018-12-16T04:44:07.348Z,1.54
2018-12-16T04:46:35.683Z,1.66
2018-12-16T04:49:04.174Z,1.50
2018-12-16T04:51:32.465Z,1.45
2018-12-16T04:54:00.790Z,1.63
2018-12-16T04:56:29.200Z,1.69
2018-12-16T04:58:57.485Z,1.99
2018-12-16T05:01:25.865Z,1.88
2018-12-16T05:03:54.174Z,1.84
2018-12-16T05:06:22.466Z,1.88
2018-12-16T05:08:50.749Z,2.02
2018-12-16T05:11:19.364Z,1.88
2018-12-16T05:13:47.660Z,1.82
2018-12-16T05:16:15.966Z,1.82
2018-12-16T05:18:44.281Z,1.64
2018-12-16T05:21:12.562Z,1.69
2018-12-16T05:23:42.082Z,1.73
2018-12-16T05:26:11.172Z,1.59
2018-12-16T05:28:39.467Z,1.82
2018-12-16T05:31:08.294Z,1.79
2018-12-16T05:33:37.553Z,1.98
2018-12-16T05:36:06.085Z,1.89
2018-12-16T05:38:34.403Z,1.80
2018-12-16T05:41:02.801Z,1.75
2018-12-16T05:43:31.140Z,1.61
2018-12-16T05:45:59.552Z,1.60
2018-12-16T05:48:27.868Z,1.50
2018-12-16T05:50:56.174Z,1.75
2018-12-16T05:53:24.494Z,1.93
2018-12-16T05:55:53.106Z,2.12
2018-12-16T05:58:21.428Z,1.99
2018-12-16T06:00:49.732Z,1.78
2018-12-16T06:03:18.034Z,1.77
2018-12-16T06:05:46.380Z,1.84
2018-12-16T06:08:14.690Z,1.88
2018-12-16T06:10:43.075Z,1.71
2018-12-16T06:13:11.398Z,2.05
2018-12-16T06:15:39.786Z,2.12
2018-12-16T06:18:08.577Z,1.98
2018-12-16T06:20:36.900Z,1.68
2018-12-16T06:23:05.188Z,1.45
2018-12-16T06:25:33.548Z,1.38
2018-12-16T06:28:01.861Z,1.60
2018-12-16T06:30:31.492Z,1.56
2018-12-16T06:32:59.827Z,1.59
2018-12-16T06:35:28.126Z,1.54
2018-12-16T06:37:56.411Z,1.41
2018-12-16T06:40:25.303Z,1.52
2018-12-16T06:42:53.599Z,1.34
2018-12-16T06:45:21.948Z,1.53
2018-12-16T06:47:50.284Z,1.64
2018-12-16T06:50:18.610Z,1.68
2018-12-16T06:52:46.889Z,1.61
2018-12-16T06:55:15.237Z,1.84
2018-12-16T06:57:43.554Z,1.64
2018-12-16T07:00:13.326Z,1.78
2018-12-16T07:02:41.925Z,1.94
2018-12-16T07:05:10.264Z,1.97
2018-12-16T07:07:38.570Z,1.72
2018-12-16T07:10:06.929Z,1.45
2018-12-16T07:12:35.211Z,1.65
2018-12-16T07:15:03.563Z,1.73
2018-12-16T07:17:31.973Z,1.49
2018-12-16T07:20:00.301Z,1.81
2018-12-16T07:22:28.738Z,1.63
2018-12-16T07:24:57.410Z,1.80
2018-12-16T07:27:25.723Z,1.76
2018-12-16T07:29:54.051Z,1.72
2018-12-16T07:32:22.376Z,1.58
2018-12-16T07:34:50.701Z,1.60
2018-12-16T07:37:19.463Z,1.60
2018-12-16T07:39:47.916Z,1.64
2018-12-16T07:42:16.335Z,1.50
2018-12-16T07:44:44.825Z,1.40
2018-12-16T07:47:13.536Z,1.83
2018-12-16T07:49:41.871Z,1.75
2018-12-16T07:52:10.213Z,1.67
2018-12-16T07:54:38.639Z,1.79
2018-12-16T07:57:06.967Z,1.83
2018-12-16T07:59:35.365Z,1.56
2018-12-16T08:02:03.731Z,1.82
2018-12-16T08:04:32.145Z,1.69
2018-12-16T08:07:00.574Z,1.95
2018-12-16T08:09:28.985Z,2.02
2018-12-16T08:11:57.309Z,1.86
2018-12-16T08:14:25.653Z,1.58
2018-12-16T08:16:54.449Z,1.52
2018-12-16T08:19:23.207Z,1.60
2018-12-16T08:21:51.531Z,1.54
2018-12-16T08:24:23.107Z,1.51
2018-12-16T08:26:50.279Z,1.66
2018-12-16T08:29:18.574Z,1.77
2018-12-16T08:31:47.193Z,1.34
2018-12-16T08:34:15.539Z,1.35
2018-12-16T08:36:43.831Z,1.53
2018-12-16T08:39:12.183Z,1.58
2018-12-16T08:41:40.470Z,1.57
2018-12-16T08:44:08.802Z,1.69
2018-12-16T08:46:37.157Z,1.79
2018-12-16T08:49:05.425Z,1.72
2018-12-16T08:51:33.745Z,1.72
2018-12-16T08:54:02.549Z,1.87
2018-12-16T08:56:30.864Z,1.85
2018-12-16T08:58:59.170Z,1.85
2018-12-16T09:01:29.264Z,2.15
2018-12-16T09:03:57.870Z,2.26
2018-12-16T09:06:26.204Z,2.28
2018-12-16T09:08:54.970Z,2.21
2018-12-16T09:11:23.503Z,1.95
2018-12-16T09:13:51.817Z,2.02
2018-12-16T09:16:20.322Z,2.16
2018-12-16T09:18:48.684Z,2.17
2018-12-16T09:21:17.218Z,2.33
2018-12-16T09:23:45.600Z,1.99
2018-12-16T09:26:13.939Z,1.69
2018-12-16T09:28:42.277Z,1.60
2018-12-16T09:31:10.620Z,1.73
2018-12-16T09:33:38.951Z,1.86
2018-12-16T09:36:07.350Z,2.03
2018-12-16T09:38:35.761Z,2.15
2018-12-16T09:41:04.095Z,2.32
2018-12-16T09:43:32.435Z,2.26
2018-12-16T09:46:00.818Z,2.26
2018-12-16T09:48:29.118Z,2.16
2018-12-16T09:50:57.448Z,1.96
2018-12-16T09:53:25.807Z,2.08
2018-12-16T09:55:54.114Z,2.25
2018-12-16T09:58:22.443Z,2.15
2018-12-16T10:00:50.882Z,2.17
2018-12-16T10:03:19.225Z,2.41
2018-12-16T10:05:47.606Z,2.10
2018-12-16T10:08:15.919Z,2.10
2018-12-16T10:10:44.277Z,1.97
2018-12-16T10:13:12.604Z,1.93
2018-12-16T10:15:40.958Z,1.70
2018-12-16T10:18:09.249Z,1.97
2018-12-16T10:20:37.578Z,1.89
2018-12-16T10:23:06.238Z,2.01
2018-12-16T10:25:34.525Z,2.05
2018-12-16T10:28:02.963Z,2.13
2018-12-16T10:30:31.337Z,2.23
2018-12-16T10:32:59.696Z,2.18
2018-12-16T10:35:28.020Z,2.41
2018-12-16T10:37:56.411Z,2.23
2018-12-16T10:40:24.785Z,2.22
2018-12-16T10:42:53.114Z,2.24
2018-12-16T10:45:21.987Z,2.23
2018-12-16T10:47:50.266Z,2.30
2018-12-16T10:50:18.602Z,2.39
2018-12-16T10:52:46.960Z,2.41
2018-12-16T10:55:15.285Z,2.41
2018-12-16T10:57:43.579Z,2.36
2018-12-16T11:00:20.481Z,2.58
2018-12-16T11:02:48.862Z,2.58
2018-12-16T11:05:17.537Z,2.34
2018-12-16T11:07:50.621Z,2.34
2018-12-16T11:10:18.991Z,2.46
2018-12-16T11:12:48.081Z,2.60
2018-12-16T11:15:16.808Z,2.65
2018-12-16T11:17:45.137Z,2.59
2018-12-16T11:20:13.495Z,2.49
2018-12-16T11:22:42.202Z,2.50
2018-12-16T11:25:11.579Z,2.53
2018-12-16T11:27:39.961Z,2.56
2018-12-16T11:30:09.958Z,2.74
2018-12-16T11:32:38.279Z,2.70
2018-12-16T11:35:06.955Z,2.74
2018-12-16T11:37:35.378Z,2.57
2018-12-16T11:40:04.800Z,2.72
2018-12-16T11:42:33.143Z,2.50
2018-12-16T11:45:01.478Z,2.98
2018-12-16T11:47:29.774Z,2.77
2018-12-16T11:49:58.086Z,2.40
2018-12-16T11:52:26.808Z,2.68
2018-12-16T11:54:55.254Z,2.80
2018-12-16T11:57:23.616Z,2.70
2018-12-16T11:59:51.948Z,2.49
2018-12-16T12:02:20.323Z,2.61
2018-12-16T12:04:48.634Z,3.20
2018-12-16T12:07:16.969Z,2.98
2018-12-16T12:09:45.320Z,3.01
2018-12-16T12:12:13.702Z,2.73
2018-12-16T12:14:42.488Z,2.72
2018-12-16T12:17:10.840Z,2.66
2018-12-16T12:19:39.221Z,2.58
2018-12-16T12:22:07.690Z,2.63
2018-12-16T12:24:36.039Z,2.77
2018-12-16T12:27:04.385Z,2.82
2018-12-16T12:29:32.845Z,3.05
2018-12-16T12:32:01.174Z,2.82
2018-12-16T12:34:29.499Z,2.98
2018-12-16T12:36:57.909Z,2.86
2018-12-16T12:39:26.238Z,2.84
2018-12-16T12:41:54.574Z,3.15
2018-12-16T12:44:22.926Z,3.09
2018-12-16T12:46:51.319Z,3.01
2018-12-16T12:49:19.642Z,3.28
2018-12-16T12:51:48.035Z,3.32
2018-12-16T12:54:16.405Z,2.80
2018-12-16T12:56:44.712Z,2.78
2018-12-16T12:59:13.508Z,3.02
2018-12-16T13:01:41.900Z,2.75
2018-12-16T13:04:10.200Z,2.83
2018-12-16T13:06:38.613Z,2.71
2018-12-16T13:09:07.812Z,2.76
2018-12-16T13:11:36.177Z,3.04
2018-12-16T13:14:04.555Z,2.98
2018-12-16T13:16:32.853Z,2.83
2018-12-16T13:19:01.353Z,2.84
2018-12-16T13:21:29.779Z,2.85
2018-12-16T13:23:58.067Z,2.82
2018-12-16T13:26:26.398Z,2.96
2018-12-16T13:28:54.714Z,2.93
2018-12-16T13:31:23.009Z,2.90
2018-12-16T13:33:51.363Z,2.74
2018-12-16T13:36:19.711Z,2.93
2018-12-16T13:38:48.050Z,3.03
2018-12-16T13:41:16.363Z,3.29
2018-12-16T13:43:44.841Z,3.14
2018-12-16T13:46:13.201Z,3.00
2018-12-16T13:48:41.535Z,3.17
2018-12-16T13:51:09.943Z,2.99
2018-12-16T13:53:38.312Z,2.98
2018-12-16T13:56:06.632Z,2.70
2018-12-16T13:58:34.998Z,2.67
2018-12-16T14:01:03.313Z,2.90
2018-12-16T14:03:31.633Z,3.08
2018-12-16T14:06:00.112Z,3.15
2018-12-16T14:08:28.478Z,3.10
2018-12-16T14:10:56.860Z,3.12
2018-12-16T14:13:25.274Z,3.23
2018-12-16T14:15:53.595Z,3.15
2018-12-16T14:18:21.941Z,3.02
2018-12-16T14:20:50.299Z,3.32
2018-12-16T14:23:18.583Z,3.17
2018-12-16T14:25:48.198Z,2.83
2018-12-16T14:28:16.905Z,3.08
2018-12-16T14:30:45.274Z,3.20
2018-12-16T14:33:13.643Z,3.10
2018-12-16T14:35:41.963Z,3.14
2018-12-16T14:38:10.596Z,3.17
2018-12-16T14:40:38.940Z,3.15
2018-12-16T14:43:07.256Z,3.14
2018-12-16T14:45:35.773Z,3.29
2018-12-16T14:48:04.227Z,3.27
2018-12-16T14:50:33.775Z,3.16
2018-12-16T14:53:02.182Z,3.32
2018-12-16T14:55:30.533Z,3.32
2018-12-16T14:57:59.015Z,3.35
2018-12-16T15:00:27.497Z,3.21
2018-12-16T15:02:55.812Z,2.82
2018-12-16T15:05:24.459Z,2.97
2018-12-16T15:07:52.864Z,2.85
2018-12-16T15:10:21.297Z,2.81
2018-12-16T15:12:49.830Z,2.91
2018-12-16T15:15:18.777Z,3.11
2018-12-16T15:17:47.283Z,2.82
2018-12-16T15:20:15.631Z,2.85
2018-12-16T15:22:43.953Z,2.90
2018-12-16T15:25:12.246Z,2.57
2018-12-16T15:27:40.641Z,2.49
2018-12-16T15:30:09.472Z,2.48
2018-12-16T15:32:37.787Z,2.53
2018-12-16T15:35:06.266Z,2.54
2018-12-16T15:37:34.591Z,2.57
2018-12-16T15:40:03.027Z,2.58
2018-12-16T15:42:31.370Z,2.43
2018-12-16T15:44:59.977Z,2.50
2018-12-16T15:47:28.453Z,2.67
2018-12-16T15:49:56.983Z,2.67
2018-12-16T15:52:25.347Z,2.72
2018-12-16T15:54:53.703Z,2.61
2018-12-16T15:57:22.238Z,2.68
2018-12-16T15:59:50.560Z,2.92
2018-12-16T16:02:18.875Z,2.46
2018-12-16T16:04:47.254Z,2.74
2018-12-16T16:07:15.584Z,2.63
2018-12-16T16:09:43.901Z,2.51
2018-12-16T16:12:12.213Z,2.86
2018-12-16T16:14:40.604Z,2.90
2018-12-16T16:17:08.936Z,2.95
2018-12-16T16:19:37.613Z,3.00
2018-12-16T16:22:06.005Z,3.01
2018-12-16T16:24:34.281Z,2.99
2018-12-16T16:27:02.647Z,3.05
2018-12-16T16:29:31.009Z,2.92
2018-12-16T16:31:59.375Z,3.01
2018-12-16T16:34:27.697Z,3.09
2018-12-16T16:36:56.147Z,3.01
2018-12-16T16:39:24.432Z,3.19
2018-12-16T16:41:52.839Z,3.46
2018-12-16T16:44:21.121Z,3.46
2018-12-16T16:46:49.756Z,3.27
2018-12-16T16:49:18.106Z,3.40
2018-12-16T16:51:46.401Z,2.98
2018-12-16T16:54:14.693Z,3.02
2018-12-16T16:56:43.010Z,3.01
2018-12-16T16:59:11.302Z,3.19
2018-12-16T17:01:39.629Z,3.16
2018-12-16T17:04:08.026Z,3.16
2018-12-16T17:06:36.319Z,3.15
2018-12-16T17:09:08.045Z,3.33
2018-12-16T17:11:36.498Z,3.39
2018-12-16T17:14:04.885Z,3.19
2018-12-16T17:16:33.176Z,3.31
2018-12-16T17:19:02.625Z,3.26
2018-12-16T17:21:31.570Z,3.48
2018-12-16T17:23:59.882Z,3.50
2018-12-16T17:26:30.254Z,3.52
2018-12-16T17:28:58.640Z,3.58
2018-12-16T17:31:26.960Z,3.55
2018-12-16T17:33:55.288Z,3.63
2018-12-16T17:36:23.591Z,3.66
2018-12-16T17:38:51.912Z,3.76
2018-12-16T17:41:20.959Z,3.65
2018-12-16T17:43:49.264Z,3.77
2018-12-16T17:46:17.575Z,3.68
2018-12-16T17:48:45.995Z,3.80
2018-12-16T17:51:14.313Z,3.54
2018-12-16T17:53:42.857Z,3.25
2018-12-16T17:56:11.205Z,3.11
2018-12-16T17:58:39.519Z,3.33
2018-12-16T18:01:07.893Z,3.07
2018-12-16T18:03:36.234Z,2.96
2018-12-16T18:06:04.660Z,3.20
2018-12-16T18:08:33.005Z,3.21
2018-12-16T18:11:01.534Z,3.29
2018-12-16T18:13:29.887Z,3.34
2018-12-16T18:16:05.423Z,3.42
2018-12-16T18:18:40.718Z,3.45
2018-12-16T18:21:18.604Z,3.06
2018-12-16T18:23:47.213Z,3.08
2018-12-16T18:26:15.506Z,2.97
2018-12-16T18:28:44.133Z,2.82
2018-12-16T18:31:12.480Z,2.93
2018-12-16T18:33:40.830Z,3.04
2018-12-16T18:36:09.253Z,3.12
2018-12-16T18:38:37.531Z,3.23
2018-12-16T18:41:05.959Z,3.22
2018-12-16T18:43:34.417Z,2.89
2018-12-16T18:46:02.857Z,2.86
2018-12-16T18:48:31.263Z,2.57
2018-12-16T18:50:59.913Z,2.58
2018-12-16T18:53:28.466Z,2.79
2018-12-16T18:55:56.757Z,2.95
2018-12-16T18:58:25.061Z,3.08
2018-12-16T19:00:53.408Z,2.85
2018-12-16T19:03:21.759Z,3.10
2018-12-16T19:05:50.382Z,3.06
2018-12-16T19:08:18.695Z,3.01
2018-12-16T19:10:46.994Z,2.85
2018-12-16T19:13:15.450Z,3.10
2018-12-16T19:15:43.773Z,3.15
2018-12-16T19:18:12.063Z,3.02
2018-12-16T19:20:40.659Z,3.01
2018-12-16T19:23:09.395Z,3.02
2018-12-16T19:25:37.736Z,3.12
2018-12-16T19:28:07.403Z,2.74
2018-12-16T19:30:35.744Z,2.91
2018-12-16T19:33:04.241Z,3.08
2018-12-16T19:35:32.796Z,2.97
2018-12-16T19:38:02.448Z,3.03
2018-12-16T19:40:31.479Z,2.77
2018-12-16T19:43:00.082Z,2.93
2018-12-16T19:45:28.411Z,3.09
2018-12-16T19:47:56.731Z,3.10
2018-12-16T19:50:25.113Z,2.91
2018-12-16T19:52:53.417Z,3.01
2018-12-16T19:55:23.234Z,3.03
2018-12-16T19:57:51.769Z,2.89
2018-12-16T20:00:20.066Z,3.04
2018-12-16T20:02:48.372Z,2.99
2018-12-16T20:05:20.613Z,3.03
2018-12-16T20:07:49.503Z,3.31
2018-12-16T20:10:17.879Z,3.35
2018-12-16T20:12:46.344Z,3.40
2018-12-16T20:15:14.678Z,3.29
2018-12-16T20:17:42.979Z,3.40
2018-12-16T20:20:11.749Z,3.31
2018-12-16T20:22:40.067Z,3.25
2018-12-16T20:25:08.593Z,3.10
2018-12-16T20:27:36.931Z,3.24
2018-12-16T20:30:07.707Z,3.54
2018-12-16T20:32:36.037Z,3.62
2018-12-16T20:35:05.548Z,3.45
2018-12-16T20:37:34.723Z,3.25
2018-12-16T20:40:03.232Z,3.31
2018-12-16T20:42:31.816Z,3.40
2018-12-16T20:45:00.122Z,3.52
2018-12-16T20:47:28.445Z,3.53
2018-12-16T20:49:57.493Z,3.48
2018-12-16T20:52:25.791Z,3.19
2018-12-16T20:54:54.123Z,3.09
2018-12-16T20:57:22.504Z,2.91
2018-12-16T20:59:50.919Z,2.89
2018-12-16T21:02:19.297Z,2.83
2018-12-16T21:04:48.110Z,2.98
2018-12-16T21:07:16.433Z,3.03
2018-12-16T21:09:44.761Z,3.09
2018-12-16T21:15:21.617Z,3.21
2018-12-16T21:17:55.317Z,3.19
2018-12-16T21:20:26.686Z,3.09
2018-12-16T21:22:54.964Z,3.04
2018-12-16T21:25:23.569Z,2.86
2018-12-16T21:27:51.853Z,2.71
2018-12-16T21:30:20.198Z,2.85
2018-12-16T21:32:48.580Z,2.75
2018-12-16T21:35:22.746Z,2.86
2018-12-16T21:37:56.653Z,2.96
2018-12-16T21:40:25.258Z,2.85
2018-12-16T21:42:54.062Z,2.93
2018-12-16T21:45:22.501Z,2.78
2018-12-16T21:47:50.943Z,2.70
2018-12-16T21:50:19.253Z,2.79
2018-12-16T21:52:47.600Z,2.72
2018-12-16T21:55:15.944Z,2.72
2018-12-16T21:57:44.288Z,2.74
2018-12-16T22:00:13.624Z,2.79
2018-12-16T22:02:41.915Z,2.74
2018-12-16T22:05:11.468Z,2.79
2018-12-16T22:07:39.891Z,2.70
2018-12-16T22:10:08.331Z,2.70
2018-12-16T22:12:36.673Z,2.66
2018-12-16T22:15:05.434Z,2.76
2018-12-16T22:17:33.734Z,3.07
2018-12-16T22:20:02.072Z,3.18
2018-12-16T22:22:30.462Z,3.13
2018-12-16T22:24:58.888Z,3.13
2018-12-16T22:27:27.224Z,3.26
2018-12-16T22:29:56.041Z,3.31
2018-12-16T22:32:24.325Z,3.39
2018-12-16T22:34:52.625Z,3.46
2018-12-16T22:37:21.198Z,3.33
2018-12-16T22:39:49.532Z,3.40
2018-12-16T22:42:17.814Z,3.31
2018-12-16T22:44:46.223Z,3.35
2018-12-16T22:47:14.541Z,3.36
2018-12-16T22:49:42.857Z,3.46
2018-12-16T22:52:11.665Z,3.11
2018-12-16T22:54:40.000Z,3.20
2018-12-16T22:57:08.302Z,2.97
2018-12-16T22:59:39.033Z,2.78
2018-12-16T23:02:07.446Z,3.08
2018-12-16T23:04:35.742Z,3.10
2018-12-16T23:07:04.073Z,3.29
2018-12-16T23:09:32.422Z,3.44
2018-12-16T23:12:00.783Z,3.43
2018-12-16T23:14:29.318Z,3.46
2018-12-16T23:16:57.655Z,3.44
2018-12-16T23:19:25.952Z,3.40
2018-12-16T23:21:54.283Z,3.52
2018-12-16T23:24:24.235Z,3.47
2018-12-16T23:26:52.603Z,3.35
2018-12-16T23:29:20.937Z,3.13
2018-12-16T23:31:49.216Z,3.24
2018-12-16T23:34:17.528Z,3.26
2018-12-16T23:36:46.245Z,3.18
2018-12-16T23:39:14.525Z,3.23
2018-12-16T23:41:42.845Z,3.28
2018-12-16T23:44:11.147Z,3.43
2018-12-16T23:46:39.442Z,3.16
2018-12-16T23:49:07.742Z,3.20
2018-12-16T23:51:36.109Z,3.00
2018-12-16T23:54:04.474Z,3.16
2018-12-16T23:56:32.767Z,3.15
2018-12-16T23:59:01.213Z,3.13
